Time;durP1;ratioP1;P1;durP2;ratioP2;P2;SDS_P1;SDS_P2;PMS_P1;PMS_P2;Temp;Humidity;BMP_temperature;BMP_pressure;BME280_temperature;BME280_humidity;BME280_pressure;Samples;Min_cycle;Max_cycle;Signal;HPM_P1;HPM_P2
2021/10/15 00:00:54;;;;;;;4.67;2.40;;;13.90;99.90;;;;;;5076314;28;20319;-64
2021/10/15 00:03:19;;;;;;;0.40;0.30;;;14.00;99.90;;;;;;5076360;28;20176;-64
2021/10/15 00:05:45;;;;;;;3.30;3.10;;;14.10;99.90;;;;;;5076380;28;20678;-64
2021/10/15 00:08:10;;;;;;;0.97;0.87;;;14.10;99.90;;;;;;5075219;28;20625;-65
2021/10/15 00:10:36;;;;;;;1.07;0.70;;;14.10;99.90;;;;;;5076154;28;20195;-64
2021/10/15 00:13:01;;;;;;;0.93;0.63;;;13.90;99.90;;;;;;5076023;28;20628;-64
2021/10/15 00:15:27;;;;;;;2.30;1.77;;;13.90;99.90;;;;;;5076344;28;20639;-65
2021/10/15 00:17:52;;;;;;;1.60;1.60;;;13.90;99.90;;;;;;5075835;28;20180;-65
2021/10/15 00:20:18;;;;;;;1.03;0.90;;;14.00;99.90;;;;;;5076142;28;20212;-67
2021/10/15 00:22:43;;;;;;;0.90;0.90;;;14.00;99.90;;;;;;5075877;28;20184;-67
2021/10/15 00:25:09;;;;;;;0.70;0.70;;;13.90;99.90;;;;;;5075982;28;20250;-67
2021/10/15 00:27:34;;;;;;;3.17;2.87;;;13.90;99.90;;;;;;5075796;28;20169;-63
2021/10/15 00:30:00;;;;;;;0.87;0.57;;;13.80;99.90;;;;;;5075702;28;20222;-64
2021/10/15 00:32:25;;;;;;;1.90;1.23;;;13.90;99.90;;;;;;5075993;28;20180;-67
2021/10/15 00:34:51;;;;;;;2.70;2.50;;;13.90;99.90;;;;;;5075707;28;20267;-67
2021/10/15 00:37:19;;;;;;;12.60;7.27;;;14.00;99.90;;;;;;5075610;28;20514;-63
2021/10/15 00:39:46;;;;;;;0.30;0.20;;;13.90;99.90;;;;;;5077145;28;20234;-65
2021/10/15 00:42:11;;;;;;;9.20;8.02;;;13.80;99.90;;;;;;5075789;28;20176;-64
2021/10/15 00:44:38;;;;;;;6.40;2.80;;;13.80;99.90;;;;;;5075926;28;20245;-67
2021/10/15 00:47:04;;;;;;;3.95;1.70;;;13.60;99.90;;;;;;5077722;28;20422;-64
2021/10/15 00:49:29;;;;;;;0.30;0.10;;;13.60;99.90;;;;;;5075132;28;20270;-64
2021/10/15 00:51:55;;;;;;;1.13;1.03;;;13.80;99.90;;;;;;5075443;28;20218;-64
2021/10/15 00:54:22;;;;;;;2.73;0.67;;;13.90;99.90;;;;;;5075864;28;20207;-64
2021/10/15 00:56:48;;;;;;;0.63;0.40;;;13.90;99.90;;;;;;5076347;28;20179;-63
2021/10/15 00:59:14;;;;;;;2.27;2.17;;;14.00;99.90;;;;;;5075910;28;20168;-67
2021/10/15 01:01:40;;;;;;;1.58;1.48;;;13.90;99.90;;;;;;5075367;28;20763;-67
2021/10/15 01:04:06;;;;;;;1.10;0.68;;;13.80;99.90;;;;;;5075222;28;20237;-67
2021/10/15 01:06:33;;;;;;;4.10;2.97;;;13.80;99.90;;;;;;5075507;28;20167;-67
2021/10/15 01:08:59;;;;;;;1.45;1.35;;;13.80;99.90;;;;;;5074776;28;20469;-67
2021/10/15 01:11:25;;;;;;;1.95;1.85;;;13.70;99.90;;;;;;5074878;28;20180;-67
2021/10/15 01:13:51;;;;;;;2.10;2.00;;;13.70;99.90;;;;;;5074976;28;20567;-67
2021/10/15 01:16:17;;;;;;;0.40;0.20;;;13.70;99.90;;;;;;5075044;28;20184;-64
2021/10/15 01:18:44;;;;;;;9.18;4.25;;;13.70;99.90;;;;;;5074766;28;20529;-65
2021/10/15 01:21:11;;;;;;;5.55;4.53;;;13.60;99.90;;;;;;5074791;28;20214;-67
2021/10/15 01:23:39;;;;;;;0.95;0.95;;;13.60;99.90;;;;;;5074964;28;20176;-67
2021/10/15 01:26:06;;;;;;;2.38;2.28;;;13.60;99.90;;;;;;5073948;28;20617;-67
2021/10/15 01:28:32;;;;;;;4.05;3.70;;;13.50;99.90;;;;;;5074552;28;20188;-65
2021/10/15 01:30:59;;;;;;;5.65;4.75;;;13.50;99.90;;;;;;5074787;28;20180;-64
2021/10/15 01:33:25;;;;;;;4.30;3.60;;;13.50;99.90;;;;;;5074883;28;20234;-67
2021/10/15 01:35:51;;;;;;;3.53;3.23;;;13.50;99.90;;;;;;5073948;28;20192;-67
2021/10/15 01:38:17;;;;;;;2.50;0.82;;;13.40;99.90;;;;;;5073577;28;20241;-64
2021/10/15 01:40:43;;;;;;;0.90;0.90;;;13.50;99.90;;;;;;5074417;28;20574;-67
2021/10/15 01:43:11;;;;;;;4.22;3.92;;;13.50;99.90;;;;;;5074829;28;20831;-67
2021/10/15 01:45:37;;;;;;;1.10;1.10;;;13.50;99.90;;;;;;5074754;28;20183;-63
2021/10/15 01:48:03;;;;;;;0.50;0.50;;;13.60;99.90;;;;;;5074419;28;20172;-65
2021/10/15 01:50:29;;;;;;;1.40;1.30;;;13.60;99.90;;;;;;5074557;28;20192;-63
2021/10/15 01:52:55;;;;;;;6.45;4.20;;;13.60;99.90;;;;;;5074133;28;20202;-63
2021/10/15 01:55:22;;;;;;;2.05;1.85;;;13.60;99.90;;;;;;5074319;28;20282;-67
2021/10/15 01:57:48;;;;;;;3.00;2.80;;;13.60;99.90;;;;;;5074279;28;20195;-63
2021/10/15 02:00:14;;;;;;;0.80;0.80;;;13.60;99.90;;;;;;5073417;28;20203;-63
2021/10/15 02:02:41;;;;;;;1.20;0.60;;;13.70;99.90;;;;;;5074168;28;20251;-63
2021/10/15 02:05:09;;;;;;;0.85;0.40;;;13.70;99.90;;;;;;5074217;28;20180;-63
2021/10/15 02:07:34;;;;;;;1.85;1.75;;;13.60;99.90;;;;;;5073824;28;20350;-63
2021/10/15 02:10:00;;;;;;;1.50;1.30;;;13.60;99.90;;;;;;5072784;28;20249;-63
2021/10/15 02:12:26;;;;;;;4.47;4.03;;;13.60;99.90;;;;;;5074019;28;20706;-63
2021/10/15 02:14:52;;;;;;;4.40;3.33;;;13.60;99.90;;;;;;5073973;28;20430;-63
2021/10/15 02:17:17;;;;;;;1.67;1.57;;;13.50;99.90;;;;;;5074743;28;20168;-63
2021/10/15 02:19:43;;;;;;;2.07;1.97;;;13.60;99.90;;;;;;5073674;28;20601;-63
2021/10/15 02:22:09;;;;;;;0.97;0.50;;;13.70;99.90;;;;;;5073801;28;20645;-63
2021/10/15 02:24:35;;;;;;;1.60;1.50;;;13.70;99.90;;;;;;5073831;28;20258;-63
2021/10/15 02:27:01;;;;;;;3.70;3.40;;;13.70;99.90;;;;;;5073849;28;20186;-63
2021/10/15 02:29:27;;;;;;;0.50;0.40;;;13.70;99.90;;;;;;5073621;28;20191;-63
2021/10/15 02:31:52;;;;;;;2.50;2.40;;;13.70;99.90;;;;;;5073826;28;20172;-63
2021/10/15 02:34:18;;;;;;;0.93;0.83;;;13.80;99.90;;;;;;5073694;28;20271;-63
2021/10/15 02:36:44;;;;;;;1.80;1.10;;;13.70;99.90;;;;;;5073584;28;20505;-64
2021/10/15 02:39:09;;;;;;;8.70;5.53;;;13.70;99.90;;;;;;5073319;28;20180;-64
2021/10/15 02:41:37;;;;;;;4.27;2.73;;;13.70;99.90;;;;;;5073393;28;20277;-64
2021/10/15 02:44:07;;;;;;;0.40;0.20;;;13.60;99.90;;;;;;5073575;28;20646;-64
2021/10/15 02:46:33;;;;;;;4.30;2.58;;;13.60;99.90;;;;;;5072662;28;20253;-64
2021/10/15 02:49:00;;;;;;;7.15;3.10;;;13.70;99.90;;;;;;5073272;28;20176;-64
2021/10/15 02:51:25;;;;;;;2.53;1.55;;;13.60;99.90;;;;;;5073371;28;20200;-64
2021/10/15 02:53:51;;;;;;;2.00;1.90;;;13.60;99.90;;;;;;5073593;28;20501;-64
2021/10/15 02:56:16;;;;;;;2.53;2.23;;;13.60;99.90;;;;;;5073556;28;20180;-64
2021/10/15 02:58:42;;;;;;;5.13;3.53;;;13.60;99.90;;;;;;5073542;28;20184;-64
2021/10/15 03:01:08;;;;;;;1.10;0.77;;;13.50;99.90;;;;;;5073211;28;20215;-64
2021/10/15 03:03:33;;;;;;;8.13;6.00;;;13.60;99.90;;;;;;5073298;28;20555;-64
2021/10/15 03:05:59;;;;;;;4.43;4.03;;;13.60;99.90;;;;;;5072260;28;20180;-64
2021/10/15 03:08:25;;;;;;;2.63;2.43;;;13.50;99.90;;;;;;5073136;28;20198;-64
2021/10/15 03:10:50;;;;;;;0.97;0.77;;;13.50;99.90;;;;;;5073519;28;20168;-64
2021/10/15 03:13:16;;;;;;;3.70;3.40;;;13.50;99.90;;;;;;5077033;28;20181;-64
2021/10/15 03:15:41;;;;;;;0.30;0.20;;;13.50;99.90;;;;;;5077353;28;20172;-64
2021/10/15 03:18:08;;;;;;;3.80;3.30;;;13.40;99.90;;;;;;5080193;28;20191;-63
2021/10/15 03:20:37;;;;;;;4.88;3.42;;;13.30;99.90;;;;;;5082342;28;20207;-64
2021/10/15 03:23:03;;;;;;;1.98;1.17;;;13.30;99.90;;;;;;5080298;28;20317;-63
2021/10/15 03:25:29;;;;;;;0.82;0.75;;;13.10;99.90;;;;;;5077170;28;20176;-63
2021/10/15 03:27:55;;;;;;;1.47;0.83;;;13.20;99.90;;;;;;5076967;28;20187;-63
2021/10/15 03:30:20;;;;;;;0.80;0.80;;;13.20;99.90;;;;;;5077096;28;20263;-63
2021/10/15 03:32:46;;;;;;;4.00;2.30;;;13.20;99.90;;;;;;5077267;28;20516;-66
2021/10/15 03:35:12;;;;;;;1.30;1.23;;;13.30;99.90;;;;;;5076845;28;20201;-66
2021/10/15 03:37:38;;;;;;;5.50;2.50;;;13.30;99.90;;;;;;5076890;28;20234;-66
2021/10/15 03:40:04;;;;;;;5.33;2.60;;;13.30;99.90;;;;;;5076692;28;20214;-66
2021/10/15 03:42:30;;;;;;;2.53;2.35;;;13.30;99.90;;;;;;5076741;28;20433;-66
2021/10/15 03:44:56;;;;;;;1.87;1.40;;;13.20;99.90;;;;;;5076189;28;20180;-66
2021/10/15 03:47:21;;;;;;;3.13;1.97;;;13.30;99.90;;;;;;5076996;28;20188;-67
2021/10/15 03:49:47;;;;;;;2.00;1.50;;;13.20;99.90;;;;;;5076468;28;20648;-66
2021/10/15 03:52:13;;;;;;;5.17;4.47;;;13.20;99.90;;;;;;5076768;28;20176;-66
2021/10/15 03:54:38;;;;;;;1.20;1.20;;;13.20;99.90;;;;;;5076652;28;20187;-66
2021/10/15 03:57:04;;;;;;;1.20;1.07;;;13.20;99.90;;;;;;5076573;28;20657;-66
2021/10/15 03:59:29;;;;;;;1.10;1.10;;;13.10;99.90;;;;;;5076313;28;20265;-62
2021/10/15 04:01:55;;;;;;;0.70;0.70;;;13.10;99.90;;;;;;5075442;28;20183;-63
2021/10/15 04:04:20;;;;;;;5.63;2.03;;;13.10;99.90;;;;;;5076429;28;20180;-63
2021/10/15 04:06:46;;;;;;;0.40;0.20;;;13.20;99.90;;;;;;5076631;28;20505;-63
2021/10/15 04:09:11;;;;;;;1.50;1.43;;;13.20;99.90;;;;;;5076274;28;20465;-63
2021/10/15 04:11:37;;;;;;;0.30;0.20;;;13.20;99.90;;;;;;5076378;28;20574;-63
2021/10/15 04:14:03;;;;;;;2.93;1.80;;;13.20;99.90;;;;;;5076259;28;20184;-63
2021/10/15 04:16:28;;;;;;;4.57;4.27;;;13.20;99.90;;;;;;5076385;28;20184;-63
2021/10/15 04:18:54;;;;;;;1.17;0.40;;;13.10;99.90;;;;;;5076467;28;20472;-62
2021/10/15 04:21:19;;;;;;;1.27;1.20;;;13.10;99.90;;;;;;5076015;28;20215;-62
2021/10/15 04:23:45;;;;;;;1.80;1.50;;;13.10;99.90;;;;;;5074674;28;20241;-62
2021/10/15 04:26:11;;;;;;;2.50;2.00;;;13.10;99.90;;;;;;5076056;28;20581;-62
2021/10/15 04:28:36;;;;;;;0.90;0.90;;;13.10;99.90;;;;;;5075924;28;20173;-63
2021/10/15 04:31:02;;;;;;;3.67;2.40;;;13.00;99.90;;;;;;5076083;28;20245;-63
2021/10/15 04:33:28;;;;;;;2.33;1.13;;;13.10;99.90;;;;;;5075866;28;20269;-63
2021/10/15 04:35:53;;;;;;;0.40;0.40;;;13.10;99.90;;;;;;5075790;28;20223;-63
2021/10/15 04:38:19;;;;;;;1.37;1.00;;;13.10;99.90;;;;;;5075633;28;20267;-63
2021/10/15 04:40:44;;;;;;;2.20;2.00;;;13.30;99.90;;;;;;5075910;28;20219;-63
2021/10/15 04:43:10;;;;;;;0.53;0.50;;;13.20;99.90;;;;;;5075877;28;20176;-63
2021/10/15 04:45:36;;;;;;;2.00;1.70;;;13.20;99.90;;;;;;5075919;28;20181;-63
2021/10/15 04:48:02;;;;;;;1.73;1.63;;;13.10;99.90;;;;;;5075563;28;20258;-63
2021/10/15 04:50:28;;;;;;;5.25;3.30;;;13.20;99.90;;;;;;5075341;28;20196;-63
2021/10/15 04:52:53;;;;;;;8.60;1.53;;;13.20;99.90;;;;;;5076068;28;20191;-63
2021/10/15 04:55:19;;;;;;;1.23;0.77;;;13.30;99.90;;;;;;5076054;28;20199;-63
2021/10/15 04:57:45;;;;;;;2.43;1.50;;;13.40;99.90;;;;;;5075446;28;20184;-63
2021/10/15 05:00:12;;;;;;;5.27;3.80;;;13.40;99.90;;;;;;5075013;28;20491;-63
2021/10/15 05:02:41;;;;;;;1.30;1.20;;;13.30;99.90;;;;;;5074946;28;20184;-63
2021/10/15 05:05:08;;;;;;;2.63;1.65;;;13.30;99.90;;;;;;5075353;28;20176;-63
2021/10/15 05:07:38;;;;;;;1.85;1.65;;;13.40;99.90;;;;;;5075479;28;20215;-63
2021/10/15 05:10:04;;;;;;;0.77;0.77;;;13.40;99.90;;;;;;5074830;28;20204;-63
2021/10/15 05:12:30;;;;;;;0.90;0.50;;;13.40;99.90;;;;;;5075072;28;20245;-63
2021/10/15 05:14:56;;;;;;;6.07;2.90;;;13.30;99.90;;;;;;5073990;28;20180;-63
2021/10/15 05:17:22;;;;;;;3.22;2.28;;;13.40;99.90;;;;;;5075111;28;20195;-63
2021/10/15 05:19:47;;;;;;;3.27;2.40;;;13.40;99.90;;;;;;5073875;28;20223;-63
2021/10/15 05:22:13;;;;;;;0.87;0.87;;;13.30;99.90;;;;;;5074863;28;20676;-66
2021/10/15 05:24:39;;;;;;;0.30;0.20;;;13.30;99.90;;;;;;5076174;28;20176;-66
2021/10/15 05:27:05;;;;;;;2.13;2.00;;;13.50;99.90;;;;;;5075215;28;20255;-63
2021/10/15 05:29:31;;;;;;;3.60;3.10;;;13.30;99.90;;;;;;5074615;28;20259;-63
2021/10/15 05:31:56;;;;;;;4.63;1.60;;;13.30;99.90;;;;;;5075423;28;20259;-63
2021/10/15 05:34:22;;;;;;;10.33;2.23;;;13.20;99.90;;;;;;5074952;28;20443;-63
2021/10/15 05:36:48;;;;;;;4.53;2.43;;;13.20;99.90;;;;;;5075606;28;20187;-63
2021/10/15 05:39:13;;;;;;;3.47;1.70;;;13.30;99.90;;;;;;5074803;28;20176;-63
2021/10/15 05:41:39;;;;;;;6.50;2.50;;;13.30;99.90;;;;;;5074801;28;20230;-63
2021/10/15 05:44:05;;;;;;;5.77;3.37;;;13.20;99.90;;;;;;5074265;28;20422;-63
2021/10/15 05:46:30;;;;;;;2.40;2.17;;;13.20;99.90;;;;;;5074217;28;20192;-63
2021/10/15 05:48:56;;;;;;;2.20;2.07;;;13.20;99.90;;;;;;5074132;28;20184;-63
2021/10/15 05:51:23;;;;;;;2.33;1.70;;;13.20;99.90;;;;;;5074343;28;20234;-63
2021/10/15 05:53:51;;;;;;;0.47;0.45;;;13.30;99.90;;;;;;5074645;28;20192;-63
2021/10/15 05:58:50;;;;;;;4.25;2.05;;;13.30;99.90;;;;;;5074119;28;20180;-63
2021/10/15 06:01:22;;;;;;;2.55;2.40;;;13.30;99.90;;;;;;5073955;28;20204;-63
2021/10/15 06:03:59;;;;;;;1.40;1.08;;;13.40;99.90;;;;;;5074157;28;20168;-63
2021/10/15 06:14:38;;;;;;;4.10;1.70;;;13.40;99.90;;;;;;5074703;28;20263;-66
2021/10/15 06:17:08;;;;;;;2.85;2.13;;;13.40;99.90;;;;;;5072717;28;20245;-66
2021/10/15 06:22:29;;;;;;;0.80;0.70;;;13.50;99.90;;;;;;5060453;28;20190;-61
2021/10/15 06:24:56;;;;;;;4.57;2.53;;;13.50;99.90;;;;;;5073648;28;20225;-65
2021/10/15 06:27:23;;;;;;;5.68;5.15;;;13.40;99.90;;;;;;5073686;28;20612;-61
2021/10/15 06:29:50;;;;;;;9.35;1.75;;;13.30;99.90;;;;;;5072364;28;20671;-66
2021/10/15 06:32:23;;;;;;;1.70;1.60;;;13.20;99.90;;;;;;5073427;28;20210;-66
2021/10/15 06:34:49;;;;;;;1.70;1.60;;;13.20;99.90;;;;;;5073600;28;20183;-63
2021/10/15 06:37:16;;;;;;;2.05;1.83;;;13.30;99.90;;;;;;5073043;28;20222;-62
2021/10/15 06:39:43;;;;;;;2.33;1.05;;;13.20;99.90;;;;;;5072503;28;20203;-65
2021/10/15 06:42:09;;;;;;;2.97;1.60;;;13.20;99.90;;;;;;5072310;28;20200;-63
2021/10/15 06:44:35;;;;;;;1.37;1.27;;;13.20;99.90;;;;;;5082722;28;20581;-62
2021/10/15 06:47:00;;;;;;;1.33;0.43;;;13.10;99.90;;;;;;5076212;28;20447;-62
2021/10/15 06:49:26;;;;;;;1.77;1.53;;;13.20;99.90;;;;;;5073469;28;20563;-66
2021/10/15 06:51:51;;;;;;;3.00;1.67;;;13.10;99.90;;;;;;5074360;28;20179;-66
2021/10/15 06:54:17;;;;;;;0.50;0.50;;;13.00;99.90;;;;;;5073480;28;20192;-66
2021/10/15 06:56:43;;;;;;;2.20;1.53;;;12.80;99.90;;;;;;5073425;28;20184;-66
2021/10/15 06:59:08;;;;;;;1.80;1.37;;;12.90;99.90;;;;;;5073908;28;20172;-62
2021/10/15 07:01:34;;;;;;;0.80;0.70;;;12.80;99.90;;;;;;5072970;28;20196;-66
2021/10/15 07:04:01;;;;;;;1.77;1.67;;;12.80;99.90;;;;;;5071881;28;20184;-66
2021/10/15 07:06:27;;;;;;;8.00;4.40;;;12.70;99.90;;;;;;5073019;28;20172;-66
2021/10/15 07:08:53;;;;;;;2.15;1.33;;;12.40;99.90;;;;;;5072998;28;20509;-66
2021/10/15 07:11:19;;;;;;;1.00;1.00;;;12.10;99.90;;;;;;5073526;28;20263;-62
2021/10/15 07:13:45;;;;;;;0.40;0.30;;;11.70;99.90;;;;;;5073204;28;20215;-66
2021/10/15 07:16:10;;;;;;;0.70;0.70;;;11.60;99.90;;;;;;5078295;28;20811;-66
2021/10/15 07:18:42;;;;;;;0.30;0.20;;;11.40;99.90;;;;;;5093270;28;20604;-62
2021/10/15 07:21:08;;;;;;;0.38;0.25;;;11.40;99.90;;;;;;5093572;28;20707;-66
2021/10/15 07:23:34;;;;;;;0.30;0.20;;;11.30;99.90;;;;;;5093270;28;20454;-66
2021/10/15 07:26:01;;;;;;;0.60;0.47;;;11.30;99.90;;;;;;5093246;28;20258;-66
2021/10/15 07:28:27;;;;;;;0.55;0.55;;;11.30;99.90;;;;;;5093043;28;20421;-63
2021/10/15 07:30:54;;;;;;;0.60;0.33;;;11.10;99.90;;;;;;5093189;28;20282;-66
2021/10/15 07:33:20;;;;;;;0.40;0.20;;;11.00;99.90;;;;;;5093465;28;20198;-66
2021/10/15 07:35:45;;;;;;;0.30;0.20;;;11.00;99.90;;;;;;5092296;28;20648;-66
2021/10/15 07:38:11;;;;;;;0.30;0.20;;;11.00;99.90;;;;;;5093184;28;20439;-66
2021/10/15 07:40:36;;;;;;;5.40;1.70;;;11.10;99.90;;;;;;5092923;28;20203;-66
2021/10/15 07:43:02;;;;;;;0.50;0.50;;;11.10;99.90;;;;;;5093153;28;20191;-66
2021/10/15 07:45:28;;;;;;;0.30;0.20;;;11.10;99.90;;;;;;5093130;28;20187;-66
2021/10/15 07:47:54;;;;;;;0.90;0.70;;;11.00;99.90;;;;;;5093036;28;20608;-67
2021/10/15 07:50:20;;;;;;;0.20;0.20;;;10.70;99.90;;;;;;5087961;28;20632;-66
2021/10/15 07:52:46;;;;;;;1.58;1.55;;;10.60;99.90;;;;;;5072969;28;20275;-65
2021/10/15 07:55:12;;;;;;;0.40;0.30;;;10.60;99.90;;;;;;5072745;28;20199;-66
2021/10/15 07:57:38;;;;;;;0.30;0.20;;;10.70;99.90;;;;;;5073602;28;20422;-67
2021/10/15 08:00:06;;;;;;;2.00;1.80;;;10.60;99.90;;;;;;5076192;28;20219;-66
2021/10/15 08:02:32;;;;;;;0.47;0.20;;;10.50;99.90;;;;;;5076383;28;20426;-66
2021/10/15 08:04:57;;;;;;;0.20;0.20;;;10.40;99.90;;;;;;5076380;28;20180;-66
2021/10/15 08:07:23;;;;;;;0.53;0.50;;;10.50;99.90;;;;;;5076619;28;20256;-66
2021/10/15 08:09:49;;;;;;;0.20;0.20;;;10.30;99.90;;;;;;5075026;28;20637;-66
2021/10/15 08:12:15;;;;;;;0.30;0.20;;;10.40;99.90;;;;;;5076234;28;20425;-66
2021/10/15 08:14:40;;;;;;;0.57;0.57;;;10.30;99.90;;;;;;5076151;28;20236;-66
2021/10/15 08:17:06;;;;;;;1.10;1.00;;;10.30;99.90;;;;;;5076528;28;20176;-66
2021/10/15 08:19:31;;;;;;;0.30;0.30;;;10.40;99.90;;;;;;5075888;28;20486;-65
2021/10/15 08:21:57;;;;;;;0.20;0.10;;;10.40;99.90;;;;;;5075964;28;20210;-65
2021/10/15 08:24:24;;;;;;;0.87;0.60;;;10.50;99.90;;;;;;5077172;28;20197;-65
2021/10/15 08:26:50;;;;;;;0.20;0.10;;;10.60;99.90;;;;;;5074698;28;20248;-65
2021/10/15 08:29:16;;;;;;;0.20;0.20;;;10.70;99.90;;;;;;5075769;28;20180;-65
2021/10/15 08:31:42;;;;;;;0.22;0.17;;;11.00;99.90;;;;;;5076060;28;20241;-67
2021/10/15 08:34:09;;;;;;;0.20;0.20;;;11.10;99.90;;;;;;5074828;28;20184;-67
2021/10/15 08:36:38;;;;;;;0.30;0.28;;;11.10;99.90;;;;;;5076194;28;20180;-68
2021/10/15 08:39:04;;;;;;;0.20;0.20;;;11.10;99.90;;;;;;5074843;28;20368;-67
2021/10/15 08:41:29;;;;;;;0.20;0.15;;;11.10;99.90;;;;;;5075567;28;20537;-66
2021/10/15 08:43:59;;;;;;;0.30;0.20;;;11.00;99.90;;;;;;5075713;28;20202;-67
2021/10/15 08:46:25;;;;;;;0.20;0.20;;;10.90;99.90;;;;;;5075588;28;20272;-67
2021/10/15 08:48:51;;;;;;;0.20;0.20;;;10.90;99.90;;;;;;5075538;28;20506;-67
2021/10/15 08:51:20;;;;;;;0.30;0.20;;;10.90;99.90;;;;;;5088972;28;20222;-67
2021/10/15 08:53:55;;;;;;;0.30;0.20;;;10.90;99.90;;;;;;5095618;28;20507;-67
2021/10/15 08:56:22;;;;;;;0.90;0.77;;;10.80;99.90;;;;;;5095618;28;20567;-67
2021/10/15 08:58:55;;;;;;;0.30;0.25;;;10.80;99.90;;;;;;5095677;28;20623;-64
2021/10/15 09:01:25;;;;;;;0.20;0.10;;;10.70;99.90;;;;;;5095588;28;20226;-63
2021/10/15 09:04:03;;;;;;;1.85;1.20;;;10.80;99.90;;;;;;5096047;28;20262;-64
2021/10/15 09:06:40;;;;;;;0.30;0.20;;;10.80;99.90;;;;;;5095421;28;20212;-64
2021/10/15 09:09:07;;;;;;;0.30;0.20;;;10.90;99.90;;;;;;5095638;28;20218;-64
2021/10/15 09:11:35;;;;;;;0.30;0.20;;;11.20;99.90;;;;;;5095272;28;20180;-64
2021/10/15 09:14:05;;;;;;;0.30;0.30;;;11.40;99.90;;;;;;5094097;28;20616;-64
2021/10/15 09:16:58;;;;;;;4.72;0.47;;;11.20;99.90;;;;;;5095089;28;20171;-64
2021/10/15 09:19:33;;;;;;;0.20;0.10;;;11.10;99.90;;;;;;5095246;28;20197;-61
2021/10/15 09:22:21;;;;;;;0.20;0.20;;;11.30;99.90;;;;;;5095328;28;20324;-67
2021/10/15 09:24:57;;;;;;;0.32;0.32;;;11.50;99.90;;;;;;5094935;28;20176;-67
2021/10/15 09:27:22;;;;;;;0.20;0.10;;;11.50;99.90;;;;;;5095122;28;20707;-67
2021/10/15 09:29:48;;;;;;;0.30;0.10;;;11.60;99.90;;;;;;5085309;28;20260;-67
2021/10/15 09:32:14;;;;;;;0.30;0.20;;;11.60;99.90;;;;;;5074901;28;20187;-67
2021/10/15 09:34:41;;;;;;;0.20;0.20;;;11.40;99.90;;;;;;5074585;28;20251;-67
2021/10/15 09:37:12;;;;;;;0.30;0.20;;;11.10;99.90;;;;;;5074558;28;20184;-66
2021/10/15 09:39:37;;;;;;;0.30;0.20;;;11.10;99.90;;;;;;5073695;28;20176;-63
2021/10/15 09:42:03;;;;;;;0.30;0.20;;;11.20;99.90;;;;;;5074352;28;20182;-63
2021/10/15 09:44:34;;;;;;;0.30;0.13;;;11.20;99.90;;;;;;5074504;28;20309;-63
2021/10/15 09:47:12;;;;;;;0.30;0.20;;;11.30;99.90;;;;;;5074339;28;20176;-63
2021/10/15 09:49:59;;;;;;;0.30;0.20;;;11.50;99.90;;;;;;5072257;28;20192;-63
2021/10/15 09:52:35;;;;;;;0.85;0.85;;;11.30;99.90;;;;;;5034471;28;20184;-63
2021/10/15 09:55:04;;;;;;;0.30;0.20;;;11.30;99.90;;;;;;5034893;28;20181;-63
2021/10/15 09:57:35;;;;;;;1.27;0.73;;;11.40;99.90;;;;;;5034191;28;20599;-63
2021/10/15 10:00:04;;;;;;;0.30;0.17;;;11.50;99.90;;;;;;5034109;28;20228;-62
2021/10/15 10:02:30;;;;;;;0.30;0.20;;;11.60;99.90;;;;;;5034434;28;20597;-63
2021/10/15 10:04:55;;;;;;;0.30;0.20;;;11.60;99.90;;;;;;5051232;28;20216;-63
2021/10/15 10:07:23;;;;;;;0.30;0.20;;;11.70;99.90;;;;;;5054048;28;20511;-63
2021/10/15 10:09:49;;;;;;;1.63;1.52;;;11.70;99.90;;;;;;5053831;28;20169;-63
2021/10/15 10:12:15;;;;;;;0.30;0.20;;;11.60;99.90;;;;;;5054258;28;20173;-63
2021/10/15 10:14:41;;;;;;;0.30;0.20;;;11.70;99.90;;;;;;5054235;28;20173;-63
2021/10/15 10:17:10;;;;;;;0.30;0.20;;;11.80;99.90;;;;;;5054395;28;20551;-63
2021/10/15 10:19:38;;;;;;;0.50;0.47;;;11.90;99.90;;;;;;5053679;28;20522;-63
2021/10/15 10:22:05;;;;;;;0.40;0.40;;;12.00;99.90;;;;;;5053319;28;20213;-63
2021/10/15 10:24:33;;;;;;;0.30;0.10;;;12.10;99.90;;;;;;5053275;28;20606;-61
2021/10/15 10:27:02;;;;;;;0.30;0.20;;;12.20;99.90;;;;;;5053443;28;20217;-63
2021/10/15 10:29:28;;;;;;;0.30;0.20;;;12.10;99.90;;;;;;5053682;28;20272;-63
2021/10/15 10:32:14;;;;;;;1.58;0.45;;;12.20;99.90;;;;;;5054172;28;20177;-61
2021/10/15 10:34:40;;;;;;;0.45;0.28;;;12.30;99.90;;;;;;5053654;28;20195;-61
2021/10/15 10:37:11;;;;;;;0.30;0.20;;;12.30;99.90;;;;;;5053534;28;20584;-61
2021/10/15 10:39:37;;;;;;;0.30;0.20;;;12.30;99.90;;;;;;5052322;28;20195;-61
2021/10/15 10:42:09;;;;;;;0.65;0.57;;;12.50;99.90;;;;;;5053934;28;20208;-63
2021/10/15 10:44:57;;;;;;;0.30;0.20;;;12.40;99.90;;;;;;5053769;28;20251;-63
2021/10/15 10:47:25;;;;;;;0.50;0.45;;;12.50;99.90;;;;;;5054055;28;20578;-62
2021/10/15 10:50:06;;;;;;;0.30;0.20;;;12.70;99.90;;;;;;5054346;28;20413;-63
2021/10/15 10:52:58;;;;;;;0.30;0.20;;;12.70;99.90;;;;;;5073630;28;20535;-62
2021/10/15 10:55:42;;;;;;;0.30;0.20;;;12.80;99.90;;;;;;5073531;28;20172;-62
2021/10/15 10:58:30;;;;;;;0.30;0.20;;;12.90;99.90;;;;;;5073303;28;20251;-62
2021/10/15 11:01:25;;;;;;;0.30;0.20;;;12.90;99.90;;;;;;5072617;28;20506;-62
2021/10/15 11:03:52;;;;;;;0.30;0.20;;;12.90;99.90;;;;;;5074658;28;20205;-63
2021/10/15 11:06:17;;;;;;;1.70;1.65;;;13.00;99.90;;;;;;5076096;28;20644;-67
2021/10/15 11:08:43;;;;;;;0.30;0.20;;;13.10;99.90;;;;;;5073159;28;20176;-67
2021/10/15 11:11:37;;;;;;;0.30;0.20;;;13.20;92.10;;;;;;5073419;28;20180;-67
2021/10/15 11:14:03;;;;;;;0.30;0.20;;;13.60;99.90;;;;;;5073479;28;20188;-66
2021/10/15 11:16:30;;;;;;;0.40;0.30;;;13.50;1.00;;;;;;5073205;28;20172;-62
2021/10/15 11:18:56;;;;;;;0.50;0.45;;;13.60;1.00;;;;;;5072703;28;20219;-63
2021/10/15 11:21:22;;;;;;;0.40;0.20;;;13.10;1.00;;;;;;5073023;28;20212;-63
2021/10/15 11:23:48;;;;;;;0.30;0.20;;;12.90;1.00;;;;;;5072984;28;20234;-63
2021/10/15 11:26:14;;;;;;;0.30;0.20;;;13.20;1.00;;;;;;5072989;28;20192;-63
2021/10/15 11:28:40;;;;;;;0.50;0.25;;;13.50;1.00;;;;;;5072772;28;20204;-63
2021/10/15 11:31:08;;;;;;;7.40;0.50;;;13.60;1.00;;;;;;5073026;28;20535;-63
2021/10/15 11:33:38;;;;;;;0.30;0.20;;;13.60;28.40;;;;;;5075217;28;20267;-63
2021/10/15 11:36:05;;;;;;;1.98;0.40;;;13.60;57.80;;;;;;5076788;28;20172;-67
2021/10/15 11:38:30;;;;;;;0.70;0.40;;;13.40;1.00;;;;;;5062736;28;20227;-67
2021/10/15 11:41:06;;;;;;;0.77;0.30;;;13.40;1.00;;;;;;5056405;28;20248;-68
2021/10/15 11:43:34;;;;;;;0.30;0.20;;;13.40;1.00;;;;;;5055299;28;20263;-67
2021/10/15 11:46:04;;;;;;;0.30;0.10;;;13.50;1.00;;;;;;5055732;28;20516;-67
2021/10/15 11:48:42;;;;;;;0.30;0.20;;;13.60;77.60;;;;;;5056399;28;20169;-67
2021/10/15 11:51:28;;;;;;;1.02;0.98;;;13.40;1.00;;;;;;5068437;28;20542;-67
2021/10/15 11:53:59;;;;;;;2.20;0.65;;;13.60;1.00;;;;;;5076548;28;20653;-67
2021/10/15 11:56:30;;;;;;;0.50;0.20;;;13.90;1.00;;;;;;5076577;28;20180;-62
2021/10/15 11:58:58;;;;;;;0.40;0.20;;;14.30;1.00;;;;;;5076161;28;20192;-62
2021/10/15 12:01:31;;;;;;;8.13;1.88;;;14.40;99.90;;;;;;5076791;28;20212;-66
2021/10/15 12:04:04;;;;;;;0.40;0.30;;;14.20;1.00;;;;;;5076299;28;20177;-67
2021/10/15 12:06:32;;;;;;;4.32;2.60;;;13.80;1.00;;;;;;5076446;28;20168;-65
2021/10/15 12:09:12;;;;;;;0.40;0.35;;;13.70;28.60;;;;;;5075896;28;20234;-65
2021/10/15 12:11:38;;;;;;;0.47;0.22;;;13.70;99.90;;;;;;5076125;28;20180;-65
2021/10/15 12:14:27;;;;;;;0.30;0.20;;;13.50;65.50;;;;;;5076559;28;20531;-65
2021/10/15 12:17:02;;;;;;;2.95;2.35;;;13.50;99.90;;;;;;5075043;28;20177;-65
2021/10/15 12:19:39;;;;;;;1.17;0.50;;;13.40;99.90;;;;;;5075739;28;20491;-65
2021/10/15 12:22:28;;;;;;;4.35;0.75;;;13.20;99.90;;;;;;5075609;28;20203;-65
2021/10/15 12:24:59;;;;;;;0.40;0.40;;;13.30;99.90;;;;;;5067496;28;20434;-65
2021/10/15 12:27:35;;;;;;;0.85;0.85;;;13.30;1.00;;;;;;5075747;28;20294;-65
2021/10/15 12:30:05;;;;;;;0.30;0.20;;;13.40;1.00;;;;;;5074724;28;20186;-65
2021/10/15 12:32:32;;;;;;;8.07;0.50;;;13.40;1.00;;;;;;5075465;28;20184;-65
2021/10/15 12:35:07;;;;;;;0.60;0.40;;;13.40;99.90;;;;;;5074583;28;20266;-65
2021/10/15 12:37:50;;;;;;;2.15;0.50;;;13.40;1.00;;;;;;5069484;28;20271;-65
2021/10/15 12:40:22;;;;;;;1.58;0.50;;;13.40;99.90;;;;;;5054451;28;20291;-66
2021/10/15 12:43:17;;;;;;;0.30;0.20;;;13.40;90.80;;;;;;5055366;28;20177;-66
2021/10/15 12:45:45;;;;;;;0.60;0.30;;;13.40;99.90;;;;;;5055541;28;20231;-65
2021/10/15 12:48:38;;;;;;;3.53;0.30;;;13.50;99.90;;;;;;5055268;28;20173;-65
2021/10/15 12:51:14;;;;;;;0.45;0.32;;;13.50;90.90;;;;;;5066726;28;20196;-61
2021/10/15 12:53:43;;;;;;;0.75;0.45;;;13.50;99.90;;;;;;5075201;28;20176;-61
2021/10/15 12:56:23;;;;;;;0.80;0.63;;;13.50;1.00;;;;;;5075021;28;20195;-62
2021/10/15 12:58:57;;;;;;;0.40;0.20;;;13.70;99.90;;;;;;5073656;28;20180;-66
2021/10/15 13:01:25;;;;;;;0.70;0.47;;;13.80;99.90;;;;;;5074966;28;20640;-66
2021/10/15 13:03:52;;;;;;;1.55;1.02;;;14.00;1.00;;;;;;5075112;28;20187;-66
2021/10/15 13:06:17;;;;;;;0.80;0.38;;;13.90;1.00;;;;;;5075040;28;20181;-65